EW9776 Weather Reports


Display with metric or nautical units.
time (UTC)temp
F
wind
direction
speed
MPH
gust
MPH
rain 1hr
in
rain 24hr
in
rain mn
in
humidity
%
barometer
mb
20200402090030 37 345 1.0 0.0 0.00 0.08 0.00 77 1.1
20200402084535 37 228 5.0 0.0 0.00 0.08 0.00 78 1.1
20200402083024 36 224 3.0 0.0 0.00 0.08 0.00 80 1.1
20200402081526 35 216 4.0 0.0 0.00 0.08 0.00 82 1.1
20200402080023 34 198 5.0 0.0 0.00 0.08 0.00 82 1.1
20200402074526 35 174 4.0 0.0 0.00 0.08 0.00 80 1.1
20200402073025 35 208 2.0 0.0 0.00 0.08 0.00 77 1.1
20200402071536 36 247 3.0 0.0 0.00 0.08 0.00 76 1.1
20200402070026 35 207 6.0 0.0 0.00 0.08 0.00 77 1.1
20200402064847 37 199 5.0 0.0 0.00 0.08 0.08 75 1.1
20200402063027 37 214 7.0 0.0 0.00 0.08 0.08 74 1.1
20200402061556 37 213 6.0 0.0 0.00 0.08 0.08 76 1.1
20200402060027 37 208 7.0 0.0 0.00 0.08 0.08 76 1.1
20200402054526 37 209 7.0 0.0 0.00 0.08 0.08 77 1.1
20200402053025 37 208 8.0 0.0 0.00 0.08 0.08 77 1.1
20200402051526 37 207 8.0 0.0 0.00 0.08 0.08 78 1.1
20200402050025 38 200 8.0 0.0 0.00 0.08 0.08 76 1.1
20200402044525 39 202 9.0 0.0 0.00 0.08 0.08 73 1.1
20200402043026 39 217 9.0 0.0 0.00 0.08 0.08 73 1.1
20200402041527 39 211 8.0 0.0 0.00 0.11 0.08 72 1.1
20200402040028 39 220 8.0 0.0 0.00 0.14 0.08 71 1.1
20200402034525 40 220 9.0 0.0 0.00 0.14 0.08 71 1.1
20200402033027 40 215 8.0 0.0 0.01 0.19 0.08 72 1.1
20200402031526 40 213 8.0 0.0 0.01 0.25 0.08 71 1.1
20200402030030 40 218 9.0 0.0 0.01 0.28 0.08 71 1.1
20200402024533 41 221 10.0 0.0 0.01 0.28 0.08 71 1.1
20200402023023 41 217 8.0 0.0 0.00 0.27 0.07 69 1.1
20200402021529 43 220 6.0 0.0 0.00 0.27 0.07 65 1.1
20200402020026 44 225 6.0 0.0 0.00 0.28 0.00 65 1.1
20200402014524 45 246 6.0 0.0 0.00 0.28 0.07 63 1.1
20200402013026 46 254 6.0 0.0 0.00 0.28 0.07 62 1.1
20200402011530 46 255 7.0 0.0 0.00 0.28 0.07 62 1.1
20200402010033 46 238 6.0 0.0 0.00 0.28 0.07 63 1.1
20200402004527 47 281 4.0 0.0 0.00 0.28 0.07 65 1.1
20200402003029 47 35 2.0 0.0 0.00 0.28 0.07 69 1.1
20200402001524 45 87 3.0 0.0 0.01 0.28 0.07 71 1.1
20200402000314 44 165 2.0 0.0 0.01 0.28 0.07 74 1.1
20200401234524 44 136 2.0 0.0 0.01 0.28 0.07 74 1.1
20200401233028 43 89 2.0 0.0 0.01 0.28 0.07 72 1.1
20200401231526 44 14 3.0 0.0 0.00 0.28 0.06 71 1.1
20200401224526 47 313 4.0 0.0 0.00 0.31 0.06 64 1.1
20200401223025 46 278 4.0 0.0 0.00 0.31 0.06 68 1.1
20200401221530 44 248 4.0 0.0 0.00 0.31 0.06 72 1.1
20200401220026 43 296 4.0 0.0 0.00 0.31 0.06 75 1.1
20200401214527 44 339 4.0 0.0 0.01 0.31 0.06 73 1.1
20200401213028 44 355 1.0 0.0 0.01 0.31 0.06 76 1.1
20200401211526 42 43 1.0 0.0 0.01 0.31 0.06 78 1.1
20200401210026 42 123 1.0 0.0 0.01 0.31 0.06 76 1.1
20200401204525 43 75 1.0 0.0 0.00 0.30 0.00 76 1.1
20200401203024 43 309 1.0 0.0 0.00 0.31 0.05 79 1.1
20200401201527 43 84 1.0 0.0 0.00 0.33 0.05 80 1.1
20200401200037 41 1 1.0 0.0 0.00 0.37 0.05 84 1.1
20200401194530 40 27 3.0 0.0 0.00 0.37 0.00 82 1.1
20200401193025 44 360 4.0 0.0 0.00 0.37 0.05 75 1.1
20200401191534 43 97 1.0 0.0 0.00 0.37 0.05 78 1.1
20200401190027 40 16 2.0 0.0 0.00 0.37 0.05 82 1.1
20200401184524 40 6 2.0 0.0 0.00 0.37 0.00 80 1.1
20200401183028 42 20 3.0 0.0 0.00 0.37 0.05 80 1.1
20200401181535 41 6 3.0 0.0 0.00 0.37 0.05 83 1.1
20200401180035 42 4 3.0 0.0 0.00 0.37 0.05 82 1.1
20200401174526 39 25 2.0 0.0 0.00 0.37 0.05 88 1.1
20200401173023 38 23 4.0 0.0 0.00 0.37 0.05 90 1.1
20200401171525 38 33 3.0 0.0 0.00 0.39 0.05 90 1.1
20200401170026 37 14 2.0 0.0 0.01 0.41 0.05 92 1.1
20200401164525 36 42 1.0 0.0 0.01 0.43 0.05 94 1.1
20200401163027 35 35 2.0 0.0 0.01 0.44 0.05 95 1.1
20200401161527 35 29 3.0 0.0 0.01 0.46 0.05 95 1.1
20200401160027 35 151 1.0 0.0 0.00 0.47 0.04 95 1.1
20200401154524 34 205 2.0 0.0 0.01 0.48 0.04 96 1.1
20200401153023 33 188 0.0 0.0 0.02 0.48 0.04 97 1.1
20200401151523 33 30 0.0 0.0 0.02 0.48 0.04 97 1.1
20200401150025 32 282 1.0 0.0 0.03 0.48 0.04 96 1.1
20200401144525 32 225 0.0 0.0 0.02 0.47 0.03 96 1.1
20200401143026 32 225 0.0 0.0 0.02 0.46 0.02 96 1.1
20200401141526 32 225 0.0 0.0 0.02 0.46 0.02 96 1.1
20200401140026 33 225 0.0 0.0 0.01 0.45 0.01 96 1.1
20200401134527 33 204 1.0 0.0 0.01 0.46 0.01 95 1.1
20200401133025 33 185 1.0 0.0 0.00 0.45 0.00 95 1.1
20200401131525 33 105 0.0 0.0 0.00 0.45 0.00 95 1.1
20200401130026 33 90 1.0 0.0 0.00 0.45 0.00 94 1.1
20200401124527 33 270 0.0 0.0 0.00 0.45 0.00 93 1.1
20200401123025 33 270 0.0 0.0 0.00 0.45 0.00 91 1.1
20200401121526 34 257 0.0 0.0 0.00 0.46 0.00 91 1.1
20200401120024 33 259 1.0 0.0 0.00 0.47 0.00 93 1.1
20200401114529 32 194 1.0 0.0 0.00 0.48 0.00 94 1.1
20200401113029 32 191 0.0 0.0 0.00 0.48 0.00 94 1.1
20200401111525 32 165 2.0 0.0 0.00 0.49 0.00 94 1.1
20200401110024 32 181 2.0 0.0 0.00 0.49 0.00 94 1.1
20200401104525 32 194 3.0 0.0 0.00 0.50 0.00 93 1.1
20200401103028 32 126 1.0 0.0 0.00 0.51 0.00 92 1.1
20200401101523 33 100 1.0 0.0 0.00 0.52 0.00 90 1.1
20200401100024 34 33 1.0 0.0 0.00 0.52 0.00 88 1.1
20200401094526 35 258 5.0 0.0 0.00 0.54 0.00 88 1.1
20200401093027 32 210 5.0 0.0 0.00 0.56 0.00 92 1.1